Time;durP1;ratioP1;P1;durP2;ratioP2;P2;SDS_P1;SDS_P2;PMS_P1;PMS_P2;Temp;Humidity;BMP_temperature;BMP_pressure;BME280_temperature;BME280_humidity;BME280_pressure;Samples;Min_cycle;Max_cycle;Signal;HPM_P1;HPM_P2
2022/03/29 00:00:07;;;;;;;41.70;22.95;;;14.50;47.40;;;;;;5060645;28;20053;-43
2022/03/29 00:02:35;;;;;;;55.50;26.45;;;14.60;47.50;;;;;;5060614;28;20074;-43
2022/03/29 00:05:04;;;;;;;49.20;26.20;;;14.50;47.50;;;;;;5058253;28;20049;-46
2022/03/29 00:07:34;;;;;;;45.95;23.60;;;14.50;47.70;;;;;;5060808;28;20056;-43
2022/03/29 00:10:04;;;;;;;47.42;23.70;;;14.50;47.60;;;;;;5060980;28;20059;-42
2022/03/29 00:12:32;;;;;;;41.53;22.48;;;14.50;47.60;;;;;;5062702;28;20059;-43
2022/03/29 00:15:00;;;;;;;50.25;24.65;;;14.50;47.60;;;;;;5061587;28;20053;-45
2022/03/29 00:17:27;;;;;;;52.42;24.92;;;14.50;47.70;;;;;;5063136;28;20056;-43
2022/03/29 00:19:55;;;;;;;41.10;20.95;;;14.50;47.70;;;;;;5064949;28;20052;-43
2022/03/29 00:22:22;;;;;;;51.80;25.00;;;14.50;47.70;;;;;;5060543;28;20067;-43
2022/03/29 00:24:51;;;;;;;49.97;25.02;;;14.50;47.80;;;;;;5062230;28;20067;-42
2022/03/29 00:27:19;;;;;;;48.90;26.00;;;14.50;47.90;;;;;;5064545;28;20052;-43
2022/03/29 00:29:47;;;;;;;55.30;28.42;;;14.50;47.90;;;;;;5065773;28;20507;-43
2022/03/29 00:32:15;;;;;;;51.50;26.85;;;14.50;48.00;;;;;;5063343;28;20056;-43
2022/03/29 00:34:43;;;;;;;52.13;26.73;;;14.50;48.00;;;;;;5061944;28;20060;-43
2022/03/29 00:37:10;;;;;;;47.15;25.00;;;14.50;48.10;;;;;;5062371;28;20060;-48
2022/03/29 00:39:38;;;;;;;48.05;26.10;;;14.40;48.10;;;;;;5064779;28;20048;-43
2022/03/29 00:42:07;;;;;;;59.47;29.83;;;14.50;48.20;;;;;;5063870;28;20061;-42
2022/03/29 00:44:36;;;;;;;63.45;28.00;;;14.40;48.20;;;;;;5061356;28;20052;-42
2022/03/29 00:47:04;;;;;;;55.45;28.80;;;14.40;48.20;;;;;;5062676;28;20056;-44
2022/03/29 00:49:32;;;;;;;50.67;27.05;;;14.40;48.70;;;;;;5064691;28;20060;-44
2022/03/29 00:52:01;;;;;;;53.75;27.90;;;14.40;48.30;;;;;;5062329;28;20056;-46
2022/03/29 00:54:33;;;;;;;60.97;27.52;;;14.40;48.30;;;;;;5062202;28;20052;-43
2022/03/29 00:57:01;;;;;;;58.60;28.58;;;14.30;48.40;;;;;;5065143;28;20056;-43
2022/03/29 00:59:30;;;;;;;51.15;27.05;;;14.30;48.40;;;;;;5064189;28;20056;-43
2022/03/29 01:02:00;;;;;;;56.33;28.17;;;14.40;48.50;;;;;;5063777;28;20602;-43
2022/03/29 01:04:28;;;;;;;53.63;26.80;;;14.40;48.50;;;;;;5062431;28;20053;-43
2022/03/29 01:06:57;;;;;;;50.83;27.17;;;14.30;48.50;;;;;;5062248;28;20499;-42
2022/03/29 01:09:25;;;;;;;53.13;27.75;;;14.30;49.10;;;;;;5065356;28;20480;-42
2022/03/29 01:11:53;;;;;;;53.47;26.60;;;14.30;48.60;;;;;;5065114;28;20053;-43
2022/03/29 01:14:21;;;;;;;57.22;26.52;;;14.30;48.60;;;;;;5060557;28;20056;-46
2022/03/29 01:19:37;;;;;;;57.88;27.23;;;14.30;48.80;;;;;;5064850;28;20075;-44
2022/03/29 01:22:09;;;;;;;54.10;25.98;;;14.30;48.70;;;;;;5059588;28;20408;-43
2022/03/29 01:24:37;;;;;;;55.25;28.92;;;14.30;48.80;;;;;;5059669;28;20515;-43
2022/03/29 01:27:07;;;;;;;54.45;26.30;;;14.30;48.90;;;;;;5064431;28;20053;-43
2022/03/29 01:29:37;;;;;;;57.33;28.35;;;14.30;48.90;;;;;;5063637;28;20059;-43
2022/03/29 01:32:08;;;;;;;55.83;27.75;;;14.30;49.00;;;;;;5063112;28;20056;-47
2022/03/29 01:34:37;;;;;;;49.55;25.92;;;14.30;49.00;;;;;;5058481;28;20114;-47
2022/03/29 01:37:06;;;;;;;47.00;25.30;;;14.20;48.90;;;;;;5059660;28;20056;-43
2022/03/29 01:39:34;;;;;;;46.67;24.15;;;14.20;48.90;;;;;;5059556;28;20060;-43
2022/03/29 01:42:03;;;;;;;44.50;23.77;;;14.20;48.90;;;;;;5062986;28;20284;-43
2022/03/29 01:44:31;;;;;;;51.92;24.63;;;14.20;49.00;;;;;;5060491;28;20407;-43
2022/03/29 01:46:59;;;;;;;53.25;27.55;;;14.20;49.00;;;;;;5062433;28;20408;-43
2022/03/29 01:49:26;;;;;;;48.15;24.27;;;14.20;49.00;;;;;;5063473;28;20071;-44
2022/03/29 01:51:54;;;;;;;61.88;28.52;;;14.20;49.00;;;;;;5056913;28;20052;-44
2022/03/29 01:54:23;;;;;;;45.17;24.23;;;14.20;49.10;;;;;;5061563;28;20060;-43
2022/03/29 01:56:50;;;;;;;46.45;25.70;;;14.20;49.10;;;;;;5064193;28;20063;-43
2022/03/29 01:59:18;;;;;;;51.55;26.60;;;14.20;49.10;;;;;;5062137;28;20480;-43
2022/03/29 02:01:47;;;;;;;48.03;25.63;;;14.20;49.20;;;;;;5062705;28;20507;-46
2022/03/29 02:04:16;;;;;;;48.40;24.98;;;14.20;49.20;;;;;;5060146;28;20847;-43
2022/03/29 02:06:43;;;;;;;53.78;28.52;;;14.10;49.20;;;;;;5061407;28;20052;-43
2022/03/29 02:09:11;;;;;;;46.97;25.13;;;14.10;49.30;;;;;;5063110;28;20060;-43
2022/03/29 02:11:43;;;;;;;46.92;23.80;;;14.10;49.30;;;;;;5063271;28;20053;-43
2022/03/29 02:14:10;;;;;;;42.35;23.67;;;14.00;49.40;;;;;;5059653;28;20075;-44
2022/03/29 02:16:38;;;;;;;52.40;26.70;;;14.00;49.40;;;;;;5061717;28;20408;-42
2022/03/29 02:19:05;;;;;;;46.42;24.75;;;14.00;49.40;;;;;;5063078;28;20055;-42
2022/03/29 02:21:33;;;;;;;45.72;24.90;;;14.00;49.40;;;;;;5060106;28;20052;-43
2022/03/29 02:24:00;;;;;;;53.80;25.45;;;14.00;49.40;;;;;;5058185;28;20056;-43
2022/03/29 02:26:28;;;;;;;53.35;28.25;;;14.00;49.40;;;;;;5062438;28;20084;-43
2022/03/29 02:28:57;;;;;;;53.25;27.27;;;14.00;49.40;;;;;;5062040;28;20052;-43
2022/03/29 02:31:24;;;;;;;53.70;26.60;;;14.00;49.50;;;;;;5062387;28;20059;-43
2022/03/29 02:33:52;;;;;;;56.35;27.85;;;13.90;49.50;;;;;;5060914;28;20057;-43
2022/03/29 02:36:19;;;;;;;54.80;29.83;;;13.90;49.60;;;;;;5059792;28;20512;-43
2022/03/29 02:38:47;;;;;;;57.65;28.80;;;13.90;49.70;;;;;;5061863;28;20060;-43
2022/03/29 02:41:14;;;;;;;55.30;28.15;;;13.90;49.70;;;;;;5063498;28;20052;-43
2022/03/29 02:43:41;;;;;;;53.05;28.00;;;13.90;49.70;;;;;;5061439;28;20487;-45
2022/03/29 02:46:10;;;;;;;63.03;32.03;;;13.80;49.70;;;;;;5059300;28;20048;-49
2022/03/29 02:48:38;;;;;;;59.22;28.85;;;13.80;49.80;;;;;;5059283;28;20060;-43
2022/03/29 02:51:05;;;;;;;55.05;26.58;;;13.70;49.80;;;;;;5062043;28;20052;-43
2022/03/29 02:53:33;;;;;;;49.42;25.35;;;13.70;49.80;;;;;;5061349;28;20064;-43
2022/03/29 02:56:01;;;;;;;44.13;24.67;;;13.70;49.90;;;;;;5059189;28;20049;-43
2022/03/29 02:58:28;;;;;;;47.50;26.40;;;13.70;50.00;;;;;;5061937;28;20063;-43
2022/03/29 03:00:56;;;;;;;47.55;25.90;;;13.60;50.10;;;;;;5061067;28;20059;-46
2022/03/29 03:03:26;;;;;;;47.05;25.13;;;13.60;50.10;;;;;;5062894;28;20060;-43
2022/03/29 03:05:53;;;;;;;45.58;24.95;;;13.60;50.20;;;;;;5059638;28;20053;-43
2022/03/29 03:08:21;;;;;;;46.72;25.50;;;13.60;50.20;;;;;;5059492;28;20063;-43
2022/03/29 03:10:49;;;;;;;50.67;25.65;;;13.60;50.20;;;;;;5060963;28;20049;-43
2022/03/29 03:13:16;;;;;;;53.35;26.63;;;13.60;50.20;;;;;;5060913;28;20500;-45
2022/03/29 03:15:44;;;;;;;52.65;26.40;;;13.60;50.30;;;;;;5057952;28;20491;-45
2022/03/29 03:18:13;;;;;;;50.33;25.83;;;13.60;50.30;;;;;;5061368;28;20492;-45
2022/03/29 03:20:42;;;;;;;49.15;26.00;;;13.60;50.30;;;;;;5061724;28;20067;-42
2022/03/29 03:23:10;;;;;;;50.83;26.50;;;13.60;50.30;;;;;;5061368;28;20056;-43
2022/03/29 03:25:38;;;;;;;49.72;25.33;;;13.60;50.30;;;;;;5058262;28;20044;-43
2022/03/29 03:28:06;;;;;;;55.80;27.23;;;13.60;50.40;;;;;;5061520;28;20056;-44
2022/03/29 03:30:34;;;;;;;48.22;26.85;;;13.60;50.40;;;;;;5060362;28;20052;-43
2022/03/29 03:33:01;;;;;;;54.10;28.08;;;13.60;50.50;;;;;;5062209;28;20898;-43
2022/03/29 03:35:29;;;;;;;48.53;25.58;;;13.60;50.50;;;;;;5056628;28;20064;-43
2022/03/29 03:37:58;;;;;;;52.63;26.88;;;13.60;50.60;;;;;;5060392;28;20060;-43
2022/03/29 03:40:26;;;;;;;53.88;27.58;;;13.60;50.60;;;;;;5060618;28;20416;-43
2022/03/29 03:42:53;;;;;;;53.15;27.75;;;13.60;50.60;;;;;;5058282;28;20530;-43
2022/03/29 03:45:22;;;;;;;49.97;26.45;;;13.60;50.60;;;;;;5057127;28;20057;-44
2022/03/29 03:47:50;;;;;;;47.92;25.85;;;13.60;50.60;;;;;;5061441;28;20055;-43
2022/03/29 03:50:17;;;;;;;48.55;26.13;;;13.60;50.60;;;;;;5066746;28;20052;-43
2022/03/29 03:52:45;;;;;;;51.33;26.15;;;13.60;50.70;;;;;;5063752;28;20080;-43
2022/03/29 03:55:14;;;;;;;48.00;24.45;;;13.60;50.70;;;;;;5061768;28;20420;-44
2022/03/29 03:57:41;;;;;;;50.72;25.77;;;13.50;50.70;;;;;;5065273;28;20052;-43
2022/03/29 04:00:11;;;;;;;45.63;24.45;;;13.50;50.70;;;;;;5065895;28;20059;-43
2022/03/29 04:02:38;;;;;;;51.45;25.50;;;13.50;50.80;;;;;;5065099;28;20044;-43
2022/03/29 04:05:08;;;;;;;48.83;25.38;;;13.50;50.80;;;;;;5063019;28;20508;-43
2022/03/29 04:07:35;;;;;;;54.92;27.83;;;13.50;50.80;;;;;;5062952;28;20044;-46
2022/03/29 04:10:03;;;;;;;59.40;27.58;;;13.50;50.90;;;;;;5066112;28;20492;-43
2022/03/29 04:12:32;;;;;;;57.15;29.02;;;13.50;50.90;;;;;;5064097;28;20052;-43
2022/03/29 04:15:00;;;;;;;53.70;28.08;;;13.50;51.00;;;;;;5059669;28;20531;-44
2022/03/29 04:17:27;;;;;;;50.58;25.60;;;13.40;50.90;;;;;;5051114;28;20040;-43
2022/03/29 04:19:56;;;;;;;48.97;26.33;;;13.40;51.10;;;;;;5064140;28;20056;-43
2022/03/29 04:22:23;;;;;;;51.05;26.90;;;13.40;50.90;;;;;;5063974;28;20052;-43
2022/03/29 04:24:51;;;;;;;51.30;25.42;;;13.40;51.00;;;;;;5063446;28;20063;-44
2022/03/29 04:27:18;;;;;;;47.35;25.33;;;13.40;51.10;;;;;;5064006;28;20048;-43
2022/03/29 04:29:47;;;;;;;58.92;26.77;;;13.30;51.10;;;;;;5064142;28;20059;-43
2022/03/29 04:32:15;;;;;;;47.47;25.25;;;13.30;51.20;;;;;;5060315;28;20064;-43
2022/03/29 04:34:44;;;;;;;48.22;25.83;;;13.30;51.20;;;;;;5062590;28;20060;-43
2022/03/29 04:37:12;;;;;;;49.47;25.73;;;13.30;51.20;;;;;;5061639;28;20060;-44
2022/03/29 04:39:39;;;;;;;58.33;27.83;;;13.30;51.20;;;;;;5065902;28;20523;-43
2022/03/29 04:42:08;;;;;;;62.75;28.45;;;13.30;51.30;;;;;;5064094;28;20047;-44
2022/03/29 04:44:35;;;;;;;48.80;25.50;;;13.30;51.40;;;;;;5062091;28;20393;-42
2022/03/29 04:47:05;;;;;;;63.58;30.23;;;13.30;51.40;;;;;;5062726;28;20056;-43
2022/03/29 04:49:34;;;;;;;45.70;25.85;;;13.20;51.40;;;;;;5065318;28;20067;-43
2022/03/29 04:52:01;;;;;;;53.38;26.27;;;13.20;51.40;;;;;;5062637;28;20416;-43
2022/03/29 04:54:30;;;;;;;48.22;24.88;;;13.20;51.40;;;;;;5062185;28;20063;-43
2022/03/29 04:57:00;;;;;;;52.53;26.48;;;13.10;51.40;;;;;;5062568;28;20068;-43
2022/03/29 04:59:27;;;;;;;65.32;31.23;;;13.20;51.60;;;;;;5047029;28;20048;-43
2022/03/29 05:01:55;;;;;;;51.85;26.92;;;13.20;51.70;;;;;;5061320;28;20052;-44
2022/03/29 05:04:24;;;;;;;57.35;27.98;;;13.20;52.20;;;;;;5062382;28;20044;-43
2022/03/29 05:06:51;;;;;;;47.65;27.35;;;13.10;51.70;;;;;;5063021;28;20049;-43
2022/03/29 05:09:19;;;;;;;48.72;25.60;;;13.10;51.60;;;;;;5063597;28;20052;-43
2022/03/29 05:11:46;;;;;;;56.10;26.55;;;13.10;51.60;;;;;;5059074;28;20056;-43
2022/03/29 05:14:13;;;;;;;46.20;24.77;;;13.00;51.60;;;;;;5057203;28;20056;-43
2022/03/29 05:16:41;;;;;;;53.95;26.25;;;13.00;51.60;;;;;;5061759;28;20067;-42
2022/03/29 05:19:09;;;;;;;52.83;24.88;;;13.00;51.70;;;;;;5062152;28;20060;-43
2022/03/29 05:21:38;;;;;;;52.55;26.23;;;13.00;51.70;;;;;;5063692;28;20064;-45
2022/03/29 05:24:06;;;;;;;51.08;25.63;;;13.00;51.90;;;;;;5062097;28;20059;-43
2022/03/29 05:26:34;;;;;;;55.70;26.90;;;12.90;51.80;;;;;;5058321;28;20416;-44
2022/03/29 05:29:03;;;;;;;46.92;26.10;;;12.90;51.90;;;;;;5063644;28;20506;-43
2022/03/29 05:31:30;;;;;;;47.92;25.83;;;12.90;51.90;;;;;;5062461;28;20060;-43
2022/03/29 05:33:58;;;;;;;48.75;26.15;;;12.90;52.00;;;;;;5060541;28;20044;-46
2022/03/29 05:36:26;;;;;;;47.60;25.48;;;12.90;52.00;;;;;;5062745;28;20071;-44
2022/03/29 05:38:55;;;;;;;46.42;25.33;;;12.90;52.10;;;;;;5061387;28;20064;-43
2022/03/29 05:41:23;;;;;;;52.45;26.25;;;12.90;52.20;;;;;;5060521;28;20048;-44
2022/03/29 05:43:51;;;;;;;51.80;26.83;;;12.90;52.20;;;;;;5061068;28;20051;-44
2022/03/29 05:49:04;;;;;;;58.83;29.50;;;12.80;52.20;;;;;;5069669;28;20055;-43
2022/03/29 05:51:32;;;;;;;61.00;31.58;;;12.80;52.20;;;;;;5062960;28;20056;-43
2022/03/29 05:54:04;;;;;;;56.30;28.95;;;12.80;52.30;;;;;;5059845;28;20055;-47
2022/03/29 05:56:31;;;;;;;49.70;26.75;;;12.80;52.40;;;;;;5059401;28;20055;-43
2022/03/29 05:58:59;;;;;;;53.20;26.52;;;12.80;52.40;;;;;;5061686;28;20079;-43
2022/03/29 06:01:27;;;;;;;54.08;27.13;;;12.80;52.50;;;;;;5058809;28;20049;-45
2022/03/29 06:03:55;;;;;;;47.80;25.13;;;12.80;52.60;;;;;;5060220;28;20059;-43
2022/03/29 06:06:22;;;;;;;58.22;28.27;;;12.80;52.70;;;;;;5063331;28;20059;-45
2022/03/29 06:08:49;;;;;;;56.00;27.63;;;12.80;52.70;;;;;;5062993;28;20060;-44
2022/03/29 06:11:19;;;;;;;54.08;26.50;;;12.90;52.80;;;;;;5061956;28;20412;-43
2022/03/29 06:13:47;;;;;;;53.65;27.02;;;12.90;52.80;;;;;;5061594;28;20499;-43
2022/03/29 06:16:14;;;;;;;61.53;29.17;;;12.90;52.70;;;;;;5062254;28;20518;-43
2022/03/29 06:18:42;;;;;;;65.80;30.80;;;12.90;52.70;;;;;;5061839;28;20072;-46
2022/03/29 06:21:10;;;;;;;52.17;27.38;;;12.90;53.20;;;;;;5062351;28;20496;-43
2022/03/29 06:23:38;;;;;;;53.78;27.23;;;12.90;52.80;;;;;;5060695;28;20052;-48
2022/03/29 06:26:05;;;;;;;51.22;27.40;;;12.90;52.90;;;;;;5056044;28;20055;-43
2022/03/29 06:28:34;;;;;;;52.58;27.33;;;12.90;53.00;;;;;;5054158;28;20623;-44
2022/03/29 06:31:02;;;;;;;53.55;27.58;;;13.00;53.20;;;;;;5060116;28;20063;-44
2022/03/29 06:33:29;;;;;;;55.90;27.50;;;13.00;53.20;;;;;;5061002;28;20056;-43
2022/03/29 06:35:57;;;;;;;52.08;25.50;;;13.00;53.10;;;;;;5061478;28;20048;-44
2022/03/29 06:38:24;;;;;;;50.95;25.98;;;13.00;53.10;;;;;;5061459;28;20044;-43
2022/03/29 06:40:54;;;;;;;49.83;25.98;;;13.00;53.10;;;;;;5058019;28;20083;-43
2022/03/29 06:43:21;;;;;;;54.45;26.55;;;13.10;53.10;;;;;;5061878;28;20052;-43
2022/03/29 06:45:50;;;;;;;46.67;24.88;;;13.10;53.20;;;;;;5059543;28;20508;-43
2022/03/29 06:48:18;;;;;;;49.28;26.52;;;13.10;53.30;;;;;;5058923;28;20415;-45
2022/03/29 06:50:45;;;;;;;52.42;25.63;;;13.10;53.30;;;;;;5057664;28;20053;-43
2022/03/29 06:53:13;;;;;;;50.75;26.40;;;13.20;53.40;;;;;;5059765;28;20060;-43
2022/03/29 06:55:41;;;;;;;49.88;25.98;;;13.30;53.50;;;;;;5059289;28;20052;-43
2022/03/29 06:58:08;;;;;;;52.03;27.15;;;13.30;53.50;;;;;;5062231;28;20067;-43
2022/03/29 07:00:36;;;;;;;51.63;26.63;;;13.30;53.50;;;;;;5058180;28;20055;-43
2022/03/29 07:03:05;;;;;;;50.17;26.08;;;13.40;53.50;;;;;;5061715;28;20071;-44
2022/03/29 07:05:36;;;;;;;50.15;25.88;;;13.40;53.50;;;;;;5059216;28;20075;-43
2022/03/29 07:08:03;;;;;;;50.92;26.55;;;13.40;53.40;;;;;;5058659;28;20404;-43
2022/03/29 07:13:16;;;;;;;57.40;29.63;;;13.50;53.40;;;;;;5066337;28;20087;-43
2022/03/29 07:15:48;;;;;;;65.82;31.42;;;13.60;53.40;;;;;;5063141;28;20048;-43
2022/03/29 07:18:17;;;;;;;63.00;32.22;;;13.60;53.40;;;;;;5060717;28;20056;-43
2022/03/29 07:20:45;;;;;;;73.78;30.40;;;13.60;53.50;;;;;;5060733;28;20059;-43
2022/03/29 07:23:13;;;;;;;65.85;32.88;;;13.60;53.50;;;;;;5055336;28;20053;-43
2022/03/29 07:25:41;;;;;;;65.18;31.67;;;13.60;53.70;;;;;;5058222;28;20054;-43
2022/03/29 07:28:11;;;;;;;53.00;28.02;;;13.60;53.60;;;;;;5059700;28;20052;-45
2022/03/29 07:30:43;;;;;;;58.30;28.80;;;13.60;53.50;;;;;;5060369;28;20052;-45
2022/03/29 07:33:11;;;;;;;58.97;28.50;;;13.60;53.70;;;;;;5061978;28;20053;-43
2022/03/29 07:35:40;;;;;;;52.03;27.08;;;13.60;53.80;;;;;;5060031;28;20056;-46
2022/03/29 07:38:09;;;;;;;51.95;28.10;;;13.60;53.90;;;;;;5057159;28;20060;-43
2022/03/29 07:40:37;;;;;;;50.63;27.27;;;13.70;53.80;;;;;;5058240;28;20064;-44
2022/03/29 07:43:06;;;;;;;57.03;29.75;;;13.70;53.70;;;;;;5061510;28;20426;-43
2022/03/29 07:45:33;;;;;;;52.90;28.90;;;13.80;53.70;;;;;;5057265;28;20059;-46
2022/03/29 07:48:03;;;;;;;65.47;33.88;;;13.80;53.70;;;;;;5056109;28;20060;-44
2022/03/29 07:50:32;;;;;;;58.42;30.75;;;13.90;53.60;;;;;;5059400;28;20053;-44
2022/03/29 07:53:03;;;;;;;60.78;32.53;;;14.00;53.40;;;;;;5056999;28;20056;-43
2022/03/29 07:55:30;;;;;;;67.32;31.75;;;14.00;53.10;;;;;;5059886;28;20067;-43
2022/03/29 07:57:58;;;;;;;66.88;33.53;;;14.00;52.90;;;;;;5060126;28;20052;-48
2022/03/29 08:00:35;;;;;;;68.40;33.42;;;14.00;52.80;;;;;;5059981;28;20091;-43
2022/03/29 08:03:05;;;;;;;69.10;32.08;;;14.00;52.90;;;;;;5059110;28;20064;-43
2022/03/29 08:05:34;;;;;;;69.93;33.17;;;14.00;53.00;;;;;;5060734;28;20057;-43
2022/03/29 08:08:04;;;;;;;73.43;34.85;;;14.00;53.00;;;;;;5056307;28;20067;-43
2022/03/29 08:10:33;;;;;;;68.35;33.50;;;14.00;53.10;;;;;;5060956;28;20267;-44
2022/03/29 08:13:03;;;;;;;76.97;34.75;;;13.90;52.90;;;;;;5060503;28;20056;-43
2022/03/29 08:15:31;;;;;;;61.97;31.92;;;14.00;52.90;;;;;;5058659;28;20048;-43
2022/03/29 08:17:59;;;;;;;53.83;28.67;;;14.00;52.80;;;;;;5058556;28;20052;-43
2022/03/29 08:20:29;;;;;;;60.25;30.88;;;14.00;53.00;;;;;;5060863;28;20400;-45
2022/03/29 08:23:00;;;;;;;64.22;31.45;;;14.00;53.00;;;;;;5058070;28;20067;-44
2022/03/29 08:25:31;;;;;;;70.10;33.05;;;14.00;53.10;;;;;;5058381;28;20060;-43
2022/03/29 08:27:59;;;;;;;60.75;30.27;;;14.10;53.20;;;;;;5059662;28;20404;-44
2022/03/29 08:30:28;;;;;;;66.40;32.40;;;14.20;53.20;;;;;;5060587;28;20056;-43
2022/03/29 08:32:57;;;;;;;57.40;29.70;;;14.30;53.20;;;;;;5059782;28;20592;-43
2022/03/29 08:35:25;;;;;;;69.95;33.50;;;14.30;53.20;;;;;;5062996;28;20052;-46
2022/03/29 08:37:52;;;;;;;75.90;34.83;;;14.40;53.40;;;;;;5062107;28;20048;-43
2022/03/29 08:40:25;;;;;;;68.43;34.10;;;14.40;53.20;;;;;;5062498;28;20048;-43
2022/03/29 08:42:58;;;;;;;69.20;34.40;;;14.50;53.00;;;;;;5062000;28;20060;-43
2022/03/29 08:45:28;;;;;;;58.42;29.95;;;14.50;53.00;;;;;;5063689;28;20071;-44
2022/03/29 08:47:57;;;;;;;62.88;30.25;;;14.60;53.00;;;;;;5063568;28;20432;-43
2022/03/29 08:50:36;;;;;;;56.75;30.25;;;14.60;53.20;;;;;;5063516;28;20053;-45
2022/03/29 08:53:04;;;;;;;62.60;30.30;;;14.70;53.20;;;;;;5062592;28;20060;-43
2022/03/29 08:55:32;;;;;;;53.55;28.55;;;14.80;53.10;;;;;;5063482;28;20052;-43
2022/03/29 08:58:00;;;;;;;51.40;28.67;;;14.90;52.80;;;;;;5062743;28;20049;-43
2022/03/29 09:00:28;;;;;;;52.45;27.27;;;15.00;52.60;;;;;;5061924;28;20057;-43
2022/03/29 09:02:55;;;;;;;51.75;26.63;;;15.10;52.40;;;;;;5062908;28;20053;-48
2022/03/29 09:05:26;;;;;;;52.38;26.63;;;15.20;52.20;;;;;;5062910;28;20500;-42
2022/03/29 09:07:55;;;;;;;45.95;25.23;;;15.30;51.90;;;;;;5060159;28;20048;-45
2022/03/29 09:10:38;;;;;;;50.47;26.67;;;15.40;51.70;;;;;;5062637;28;20056;-44
2022/03/29 09:13:17;;;;;;;50.95;26.27;;;15.50;51.50;;;;;;5062854;28;20044;-43
2022/03/29 09:15:44;;;;;;;50.22;27.58;;;15.60;50.80;;;;;;5061078;28;20400;-43
2022/03/29 09:18:13;;;;;;;56.75;27.73;;;15.70;50.90;;;;;;5064218;28;20052;-43
2022/03/29 09:20:41;;;;;;;50.35;26.45;;;15.80;50.60;;;;;;5065393;28;20484;-42
2022/03/29 09:23:14;;;;;;;46.28;25.48;;;15.90;50.40;;;;;;5062277;28;20079;-43
2022/03/29 09:25:47;;;;;;;54.67;26.83;;;15.90;50.20;;;;;;5060601;28;20059;-46
2022/03/29 09:28:17;;;;;;;46.20;25.50;;;16.00;50.10;;;;;;5062671;28;20052;-43
2022/03/29 09:30:47;;;;;;;48.55;24.50;;;16.10;50.00;;;;;;5062019;28;20056;-43
2022/03/29 09:33:16;;;;;;;48.33;27.05;;;16.10;49.70;;;;;;5061750;28;20507;-43
2022/03/29 09:35:56;;;;;;;63.22;27.70;;;16.20;49.60;;;;;;5061221;28;20060;-43
2022/03/29 09:38:27;;;;;;;53.03;25.30;;;16.20;49.30;;;;;;5060537;28;20131;-43
2022/03/29 09:40:56;;;;;;;39.03;22.38;;;16.30;49.20;;;;;;5063989;28;20060;-43
2022/03/29 09:43:26;;;;;;;49.22;24.77;;;16.30;49.00;;;;;;5062623;28;20424;-43
2022/03/29 09:45:56;;;;;;;48.17;23.17;;;16.40;48.60;;;;;;5059034;28;20048;-43
2022/03/29 09:48:33;;;;;;;48.40;24.25;;;16.40;48.60;;;;;;5062945;28;20412;-43
2022/03/29 09:51:19;;;;;;;51.55;24.27;;;16.50;48.30;;;;;;5062630;28;20056;-43
2022/03/29 09:53:51;;;;;;;48.25;24.35;;;16.50;48.10;;;;;;5061583;28;20059;-43
2022/03/29 09:56:24;;;;;;;37.22;20.60;;;16.50;48.20;;;;;;5058775;28;20049;-43
2022/03/29 09:59:10;;;;;;;39.92;19.98;;;16.50;47.80;;;;;;5063405;28;20052;-43
2022/03/29 10:01:48;;;;;;;32.40;15.18;;;16.60;47.30;;;;;;5058595;28;20048;-43
2022/03/29 10:04:17;;;;;;;27.20;14.85;;;16.60;46.40;;;;;;5062731;28;20400;-43
2022/03/29 10:06:45;;;;;;;28.73;15.32;;;16.60;46.40;;;;;;5060734;28;20067;-43
2022/03/29 10:09:29;;;;;;;32.42;16.50;;;16.70;46.20;;;;;;5058529;28;20044;-44
2022/03/29 10:11:59;;;;;;;29.65;15.95;;;16.70;45.50;;;;;;5062591;28;20052;-43
2022/03/29 10:14:29;;;;;;;31.38;16.98;;;16.70;45.80;;;;;;5061711;28;20052;-43
2022/03/29 10:16:57;;;;;;;28.42;14.98;;;16.70;45.80;;;;;;5060089;28;20415;-44
2022/03/29 10:19:26;;;;;;;28.55;15.30;;;16.80;45.50;;;;;;5062010;28;20052;-44
2022/03/29 10:21:55;;;;;;;28.42;14.75;;;16.80;45.40;;;;;;5061491;28;20053;-44
2022/03/29 10:24:23;;;;;;;35.10;17.33;;;16.80;45.10;;;;;;5061794;28;20412;-43
2022/03/29 10:26:53;;;;;;;30.25;15.50;;;16.90;44.90;;;;;;5060942;28;20059;-43
2022/03/29 10:29:21;;;;;;;32.40;17.20;;;16.90;45.10;;;;;;5061894;28;20067;-43
2022/03/29 10:31:54;;;;;;;33.28;16.17;;;17.00;45.10;;;;;;5061775;28;20068;-43
2022/03/29 10:34:24;;;;;;;28.08;15.45;;;17.00;45.10;;;;;;5061084;28;20068;-43
2022/03/29 10:37:15;;;;;;;30.20;14.52;;;17.10;45.10;;;;;;5060581;28;20052;-43
2022/03/29 10:39:47;;;;;;;27.55;15.25;;;17.10;44.70;;;;;;5062274;28;20049;-44
2022/03/29 10:42:29;;;;;;;24.48;12.55;;;17.20;44.70;;;;;;5062706;28;20450;-43
2022/03/29 10:45:14;;;;;;;24.33;13.88;;;17.30;43.50;;;;;;5061395;28;20488;-48
2022/03/29 10:47:45;;;;;;;28.95;15.80;;;17.30;43.80;;;;;;5063015;28;20055;-43
2022/03/29 10:50:14;;;;;;;32.88;16.75;;;17.40;44.20;;;;;;5060764;28;20059;-45
2022/03/29 10:52:44;;;;;;;34.50;18.05;;;17.40;44.30;;;;;;5057460;28;20052;-44
2022/03/29 10:55:25;;;;;;;33.05;17.88;;;17.50;44.90;;;;;;5058399;28;20052;-43
2022/03/29 10:58:13;;;;;;;34.00;17.98;;;17.70;44.60;;;;;;5060988;28;20059;-43
2022/03/29 11:00:43;;;;;;;26.85;15.65;;;17.70;44.20;;;;;;5060780;28;20053;-43
2022/03/29 11:03:20;;;;;;;26.55;13.90;;;17.80;44.40;;;;;;5056248;28;20056;-43
2022/03/29 11:06:08;;;;;;;28.02;14.13;;;17.90;44.00;;;;;;5060480;28;20049;-43
2022/03/29 11:08:37;;;;;;;28.70;14.63;;;18.00;43.80;;;;;;5060337;28;20049;-43
2022/03/29 11:11:05;;;;;;;26.48;15.02;;;18.00;43.80;;;;;;5059635;28;20060;-43
2022/03/29 11:13:37;;;;;;;30.58;16.98;;;18.10;44.00;;;;;;5059358;28;20066;-43
2022/03/29 11:16:29;;;;;;;30.10;17.20;;;18.10;43.60;;;;;;5059435;28;20048;-43
2022/03/29 11:18:59;;;;;;;29.90;15.40;;;18.20;42.90;;;;;;5046913;28;21024;-45
2022/03/29 11:21:35;;;;;;;22.73;13.25;;;18.20;43.10;;;;;;5061880;28;20567;-43
2022/03/29 11:24:03;;;;;;;16.27;8.60;;;18.30;43.00;;;;;;5060702;28;20488;-43
2022/03/29 11:26:31;;;;;;;20.77;11.45;;;18.30;42.80;;;;;;5061081;28;20048;-43
2022/03/29 11:29:00;;;;;;;32.35;16.25;;;18.30;42.50;;;;;;5060684;28;20044;-43
2022/03/29 11:31:38;;;;;;;28.08;15.73;;;18.40;42.30;;;;;;5061139;28;20056;-43
2022/03/29 11:34:11;;;;;;;31.58;15.63;;;18.40;42.10;;;;;;5060568;28;20045;-43
2022/03/29 11:36:40;;;;;;;25.85;14.75;;;18.40;42.40;;;;;;5060380;28;20056;-46
2022/03/29 11:39:10;;;;;;;31.85;16.20;;;18.50;42.40;;;;;;5062277;28;20052;-43
2022/03/29 11:41:38;;;;;;;32.97;16.30;;;18.50;41.90;;;;;;5061075;28;20576;-43
2022/03/29 11:44:07;;;;;;;33.33;15.77;;;18.60;42.20;;;;;;5059755;28;20404;-43
2022/03/29 11:46:49;;;;;;;31.77;15.90;;;18.60;42.20;;;;;;5060374;28;20503;-43
2022/03/29 11:49:18;;;;;;;27.63;16.08;;;18.60;41.70;;;;;;5057987;28;20480;-43
2022/03/29 11:52:04;;;;;;;30.08;16.13;;;18.70;41.90;;;;;;5060339;28;20418;-43
2022/03/29 11:54:31;;;;;;;26.70;14.27;;;18.70;41.60;;;;;;5059715;28;20063;-43
2022/03/29 11:56:59;;;;;;;22.90;13.05;;;18.80;41.90;;;;;;5059617;28;20059;-43
2022/03/29 11:59:31;;;;;;;26.90;14.60;;;18.90;41.80;;;;;;5055738;28;20052;-43
2022/03/29 12:02:04;;;;;;;24.80;13.98;;;18.90;41.20;;;;;;5056171;28;20052;-43
2022/03/29 12:04:37;;;;;;;21.48;13.10;;;18.90;40.70;;;;;;5058904;28;20518;-43
2022/03/29 12:07:05;;;;;;;27.67;14.43;;;19.00;40.70;;;;;;5058413;28;20053;-43
2022/03/29 12:09:33;;;;;;;24.75;13.25;;;19.00;40.50;;;;;;5061863;28;20059;-44
2022/03/29 12:12:02;;;;;;;26.95;13.02;;;19.00;40.70;;;;;;5063895;28;20056;-43
2022/03/29 12:14:29;;;;;;;21.38;12.63;;;19.10;40.70;;;;;;5061126;28;20052;-43
2022/03/29 12:17:03;;;;;;;25.23;13.52;;;19.20;40.80;;;;;;5063776;28;20048;-43
2022/03/29 12:19:31;;;;;;;26.40;13.63;;;19.20;40.30;;;;;;5065087;28;20420;-43
2022/03/29 12:22:02;;;;;;;24.27;12.88;;;19.20;40.00;;;;;;5062358;28;20612;-46
2022/03/29 12:24:33;;;;;;;31.23;13.55;;;19.30;39.60;;;;;;5060567;28;20044;-43
2022/03/29 12:27:04;;;;;;;21.63;12.27;;;19.30;39.80;;;;;;5064384;28;20048;-43
2022/03/29 12:29:34;;;;;;;24.55;12.88;;;19.30;39.90;;;;;;5062682;28;20067;-43
2022/03/29 12:32:03;;;;;;;25.02;14.35;;;19.40;40.00;;;;;;5063647;28;20067;-43
2022/03/29 12:34:32;;;;;;;25.55;13.23;;;19.40;39.40;;;;;;5060982;28;20048;-43
2022/03/29 12:37:04;;;;;;;21.65;12.13;;;19.40;39.40;;;;;;5062062;28;20056;-43
2022/03/29 12:39:36;;;;;;;27.15;13.43;;;19.40;38.60;;;;;;5064634;28;20493;-43
2022/03/29 12:42:04;;;;;;;20.70;12.48;;;19.30;38.20;;;;;;5064831;28;20056;-45
2022/03/29 12:44:36;;;;;;;25.80;13.82;;;19.30;38.70;;;;;;5060538;28;20425;-44
2022/03/29 12:47:05;;;;;;;23.17;13.27;;;19.40;38.70;;;;;;5064569;28;20049;-43